Tropical Cyclones
[Index]
Main Index Home Page Stock Weather Photos Extreme Storms Discussion Storm News and Storm Chasing Reports Tropical Cyclones / Hurricanes / Typhoons Weather Data and Links Wild Fires / Bushfires Weather Observation Techniques Weather Picture Catalogue Tornado Pictures and Reports Stock Video Footage and DVDs for sale
Season 2010-2011 Tropical Cyclone ABELE Track Map
Season 2010-2011 Summaries: [BoM-AU] [JTWC-AU] [JTWC-SIO] [JTWC-SPAC] [JTWC-SH]
<<- Previous TC | JTWC 2010-2011 Season | Next TC ->>

click for intensity scale information  Lat/long Grid: Show Hide

 Date Labels: Show Hide

Joint Typhoon Warning Centre Cyclone Data

Name: ABELE

26 Nov 2010 18:00 UTC to 04 Dec 2010 12:00 UTC

    date/time    lat    long     hPa   cat  kts
2010-11-26 18    6.9    88.5    1010         15          
2010-11-27 00    7.2    87.8    1010         15          
2010-11-27 06    7.8    87.2    1010         15          
2010-11-27 12    8.6    86.7    1010         15          
2010-11-27 18    9.4    86.6    1010         15          
2010-11-28 00   10.0    86.6    1010         15          
2010-11-28 06   10.5    86.7    1010         15          
2010-11-28 12   11.0    86.7    1010         15          
2010-11-28 18   11.4    86.6    1007         20          
2010-11-29 00   11.6    86.4    1004         25          
2010-11-29 06   11.7    86.2    1000         30          
2010-11-29 12   11.8    86.0    1000         30          
2010-11-29 18   12.0    85.8     996         35          
2010-11-30 00   12.4    85.6     996         35          
2010-11-30 06   12.8    85.4     996         35          
2010-11-30 12   13.2    85.3     996         35          
2010-11-30 18   13.7    85.3     996         35          
2010-12-01 00   14.3    85.4     996         35          
2010-12-01 06   14.8    85.6     993    1    40          
2010-12-01 12   15.2    85.8     989    1    45          
2010-12-01 18   15.7    86.3     989    1    45          
2010-12-02 00   16.1    86.8     978    2    60          
2010-12-02 06   16.6    87.6     974    2    65          
2010-12-02 06   16.6    87.6     974    2    65          
2010-12-02 12   17.0    88.5     967    3    75          
2010-12-02 12   17.0    88.5     967    3    75          
2010-12-02 12   17.0    88.5     967    3    75          
2010-12-02 18   17.6    89.4     963    3    80          
2010-12-02 18   17.6    89.4     963    3    80          
2010-12-02 18   17.6    89.4     963    3    80          
2010-12-03 00   18.4    90.4     974    2    65          
2010-12-03 00   18.4    90.4     974    2    65          
2010-12-03 06   19.2    91.5     985    1    50          
2010-12-03 12   20.1    92.5     989    1    45          
2010-12-03 18   21.0    93.3     993    1    40          
2010-12-04 00   21.7    93.7     996         35          
2010-12-04 06   22.4    94.1    1004         25          
2010-12-04 12   23.1    94.4    1007         20          
Winds are 1-min average.

Tropical cyclone tracks developed by Michael Bath using data from the Joint Typhoon Warning Centre Best Tracks and Google Maps.


[Australian Severe Weather index] [Copyright Notice] [Email Contacts] [Search This Site] [Privacy Policy]
Document: tropical_cyclone_abele.htm Updated: 28 June 2017